This is the latest recevied weather packets stored in our database for station/object HK2LS-SM. If no packets are shown the sender has not sent any weather packets the latest 10 day(s).
| Time | Temp. | Humidity | Pressure | Rain* | Wind** | Luminosity | Snow |
|---|---|---|---|---|---|---|---|
| 1777846243 | 28.89° C | 78% | 1007.5 hPa | 0 mm | - | - | - |
| 1777844371 | 28.89° C | 80% | 1007.5 hPa | 0.25 mm | - | - | - |
| 1777844070 | 28.89° C | 79% | 1007.5 hPa | 0.25 mm | - | - | - |
| 1777843738 | 28.89° C | 80% | 1007.5 hPa | 0.25 mm | - | - | - |
| 1777840725 | 29.44° C | 79% | 1007.5 hPa | 0 mm | - | - | - |
| 1777839489 | 30° C | 77% | 1007.5 hPa | 0 mm | - | - | - |
| 1777838586 | 30.56° C | 73% | 1007.5 hPa | 0 mm | - | - | - |
| 1777836747 | 31.67° C | 68% | 1007.5 hPa | 0 mm | - | - | - |
| 1777835511 | 31.67° C | 69% | 1007.8 hPa | 0 mm | - | - | - |
| 1777835209 | 31.67° C | 69% | 1007.8 hPa | 0 mm | - | - | - |
| 1777834005 | 32.22° C | 67% | 1007.8 hPa | 0 mm | - | - | - |
| 1777833672 | 32.22° C | 70% | 1008.1 hPa | 0 mm | - | - | - |
| 1777833371 | 32.22° C | 69% | 1008.1 hPa | 0 mm | - | - | - |
| 1777831563 | 32.78° C | 69% | 1008.8 hPa | 0 mm | - | - | - |
| 1777831262 | 33.33° C | 67% | 1009.1 hPa | 0 mm | - | - | - |
| 1777829630 | 32.22° C | 70% | 1009.5 hPa | 0 mm | - | - | - |
| 1777828093 | 31.67° C | 71% | 1010.2 hPa | 0 mm | - | - | - |
| 1777826463 | 32.78° C | 68% | 1010.2 hPa | 0 mm | - | - | - |
| 1777823992 | 31.67° C | 71% | 1010.5 hPa | 0 mm | - | - | - |
| 1777818177 | 30.56° C | 71% | 1011.2 hPa | 0 mm | - | - | - |
| 1777817575 | 30.56° C | 71% | 1011.2 hPa | 0 mm | - | - | - |
| 1777816339 | 29.44° C | 77% | 1011.2 hPa | 0 mm | - | - | - |
| 1777815027 | 30° C | 75% | 1009.5 hPa | 0 mm | - | - | - |
| 1777812286 | 29.44° C | 76% | 1009.5 hPa | 0 mm | - | - | - |
| 1777810084 | 28.33° C | 80% | 1009.5 hPa | 0 mm | - | - | - |
* Rain latest hour (hover to see other rain measurements)
** Current wind speed in m/s (hover to see current wind gust speed)